sensor_id;sensor_type;location;lat;lon;timestamp;pressure;altitude;pressure_sealevel;temperature;humidity
39823;BME280;25499;53.958;10.970;2024-01-11T07:13:07;102957.09;;;-1.30;100.00
39823;BME280;25499;53.958;10.970;2024-01-11T07:15:36;102966.53;;;-1.29;100.00
39823;BME280;25499;53.958;10.970;2024-01-11T07:18:04;102966.03;;;-1.36;100.00
39823;BME280;25499;53.958;10.970;2024-01-11T07:20:31;102976.63;;;-1.31;100.00
39823;BME280;25499;53.958;10.970;2024-01-11T07:22:57;102978.16;;;-1.33;100.00
39823;BME280;25499;53.958;10.970;2024-01-11T07:25:24;102973.94;;;-1.33;100.00
39823;BME280;25499;53.958;10.970;2024-01-11T07:27:51;102966.13;;;-1.34;100.00
39823;BME280;25499;53.958;10.970;2024-01-11T07:30:19;102970.75;;;-1.30;100.00
39823;BME280;25499;53.958;10.970;2024-01-11T07:32:46;102969.47;;;-1.35;100.00
39823;BME280;25499;53.958;10.970;2024-01-11T07:35:13;102975.88;;;-1.40;100.00
39823;BME280;25499;53.958;10.970;2024-01-11T07:37:41;102975.47;;;-1.35;100.00
39823;BME280;25499;53.958;10.970;2024-01-11T07:40:08;102965.91;;;-1.37;100.00
39823;BME280;25499;53.958;10.970;2024-01-11T07:42:37;102950.81;;;-1.34;100.00
39823;BME280;25499;53.958;10.970;2024-01-11T07:45:04;102958.25;;;-1.37;100.00
39823;BME280;25499;53.958;10.970;2024-01-11T07:47:33;102948.25;;;-1.34;100.00
39823;BME280;25499;53.958;10.970;2024-01-11T07:50:00;102935.75;;;-1.41;100.00
39823;BME280;25499;53.958;10.970;2024-01-11T07:52:26;102941.88;;;-1.39;100.00
39823;BME280;25499;53.958;10.970;2024-01-11T07:54:53;102946.78;;;-1.42;100.00
39823;BME280;25499;53.958;10.970;2024-01-11T07:57:20;102947.50;;;-1.33;100.00
39823;BME280;25499;53.958;10.970;2024-01-11T07:59:48;102939.59;;;-1.36;100.00
39823;BME280;25499;53.958;10.970;2024-01-11T08:02:15;102941.63;;;-1.32;100.00
39823;BME280;25499;53.958;10.970;2024-01-11T08:04:43;102944.19;;;-1.32;100.00
39823;BME280;25499;53.958;10.970;2024-01-11T08:07:10;102944.53;;;-1.27;100.00
39823;BME280;25499;53.958;10.970;2024-01-11T08:09:36;102937.78;;;-1.27;100.00
39823;BME280;25499;53.958;10.970;2024-01-11T08:12:10;102937.66;;;-1.28;100.00
39823;BME280;25499;53.958;10.970;2024-01-11T08:14:38;102924.75;;;-1.30;100.00
39823;BME280;25499;53.958;10.970;2024-01-11T08:17:07;102913.13;;;-1.26;100.00
39823;BME280;25499;53.958;10.970;2024-01-11T08:19:34;102905.06;;;-1.31;100.00
39823;BME280;25499;53.958;10.970;2024-01-11T08:22:03;102901.50;;;-1.33;100.00
39823;BME280;25499;53.958;10.970;2024-01-11T08:24:30;102905.06;;;-1.31;100.00
39823;BME280;25499;53.958;10.970;2024-01-11T08:26:57;102909.94;;;-1.24;100.00
39823;BME280;25499;53.958;10.970;2024-01-11T08:29:24;102914.09;;;-1.14;100.00
39823;BME280;25499;53.958;10.970;2024-01-11T08:31:51;102910.34;;;-1.07;100.00
39823;BME280;25499;53.958;10.970;2024-01-11T08:34:18;102903.81;;;-1.04;100.00
39823;BME280;25499;53.958;10.970;2024-01-11T08:36:44;102886.84;;;-1.03;100.00
39823;BME280;25499;53.958;10.970;2024-01-11T08:39:12;102885.28;;;-1.01;100.00
39823;BME280;25499;53.958;10.970;2024-01-11T08:41:40;102898.53;;;-0.95;100.00
39823;BME280;25499;53.958;10.970;2024-01-11T08:44:07;102895.34;;;-0.92;100.00
39823;BME280;25499;53.958;10.970;2024-01-11T08:46:34;102909.25;;;-0.89;100.00
39823;BME280;25499;53.958;10.970;2024-01-11T08:49:01;102920.72;;;-0.84;100.00
39823;BME280;25499;53.958;10.970;2024-01-11T08:51:28;102914.97;;;-0.81;100.00
39823;BME280;25499;53.958;10.970;2024-01-11T08:53:55;102917.53;;;-0.81;100.00
39823;BME280;25499;53.958;10.970;2024-01-11T08:56:24;102921.81;;;-0.70;100.00
39823;BME280;25499;53.958;10.970;2024-01-11T08:58:51;102922.19;;;-0.65;100.00
39823;BME280;25499;53.958;10.970;2024-01-11T09:01:17;102918.63;;;-0.67;100.00
39823;BME280;25499;53.958;10.970;2024-01-11T09:03:44;102916.56;;;-0.71;100.00
39823;BME280;25499;53.958;10.970;2024-01-11T09:06:13;102920.38;;;-0.66;100.00
39823;BME280;25499;53.958;10.970;2024-01-11T09:08:40;102905.56;;;-0.70;100.00
39823;BME280;25499;53.958;10.970;2024-01-11T09:11:07;102911.47;;;-0.71;100.00
39823;BME280;25499;53.958;10.970;2024-01-11T09:13:37;102901.72;;;-0.65;100.00
39823;BME280;25499;53.958;10.970;2024-01-11T09:16:05;102904.75;;;-0.59;100.00
39823;BME280;25499;53.958;10.970;2024-01-11T09:18:32;102907.78;;;-0.53;100.00
39823;BME280;25499;53.958;10.970;2024-01-11T09:20:59;102921.16;;;-0.45;100.00
39823;BME280;25499;53.958;10.970;2024-01-11T09:23:25;102929.97;;;-0.42;100.00
39823;BME280;25499;53.958;10.970;2024-01-11T09:25:52;102922.78;;;-0.35;100.00
39823;BME280;25499;53.958;10.970;2024-01-11T09:28:19;102913.53;;;-0.33;100.00
39823;BME280;25499;53.958;10.970;2024-01-11T09:30:47;102922.22;;;-0.31;100.00
39823;BME280;25499;53.958;10.970;2024-01-11T09:33:15;102922.03;;;-0.23;100.00
39823;BME280;25499;53.958;10.970;2024-01-11T09:35:41;102927.13;;;-0.23;100.00
39823;BME280;25499;53.958;10.970;2024-01-11T09:38:08;102927.72;;;-0.15;100.00
39823;BME280;25499;53.958;10.970;2024-01-11T09:40:36;102919.59;;;-0.21;100.00
39823;BME280;25499;53.958;10.970;2024-01-11T09:43:04;102925.56;;;-0.21;100.00
39823;BME280;25499;53.958;10.970;2024-01-11T09:45:33;102923.81;;;-0.22;100.00
39823;BME280;25499;53.958;10.970;2024-01-11T09:48:03;102918.81;;;-0.20;100.00
39823;BME280;25499;53.958;10.970;2024-01-11T09:50:32;102908.38;;;-0.11;100.00
39823;BME280;25499;53.958;10.970;2024-01-11T09:53:01;102897.53;;;-0.19;100.00
39823;BME280;25499;53.958;10.970;2024-01-11T09:55:32;102905.66;;;-0.25;100.00
39823;BME280;25499;53.958;10.970;2024-01-11T09:57:59;102911.13;;;-0.20;100.00
39823;BME280;25499;53.958;10.970;2024-01-11T10:00:27;102913.63;;;-0.10;100.00
39823;BME280;25499;53.958;10.970;2024-01-11T10:02:54;102918.19;;;-0.06;100.00
39823;BME280;25499;53.958;10.970;2024-01-11T10:05:23;102920.22;;;-0.02;100.00
39823;BME280;25499;53.958;10.970;2024-01-11T10:07:49;102922.97;;;0.02;100.00
39823;BME280;25499;53.958;10.970;2024-01-11T10:10:16;102933.34;;;0.03;100.00
39823;BME280;25499;53.958;10.970;2024-01-11T10:12:43;102937.56;;;0.03;100.00
39823;BME280;25499;53.958;10.970;2024-01-11T10:15:10;102951.13;;;0.02;100.00
39823;BME280;25499;53.958;10.970;2024-01-11T10:17:41;102951.69;;;-0.03;100.00
39823;BME280;25499;53.958;10.970;2024-01-11T10:20:10;102955.25;;;-0.01;100.00
39823;BME280;25499;53.958;10.970;2024-01-11T10:22:40;102946.56;;;-0.03;100.00
39823;BME280;25499;53.958;10.970;2024-01-11T10:25:08;102937.34;;;-0.01;100.00
39823;BME280;25499;53.958;10.970;2024-01-11T10:27:36;102928.09;;;0.02;100.00
39823;BME280;25499;53.958;10.970;2024-01-11T10:30:04;102907.44;;;0.10;100.00
39823;BME280;25499;53.958;10.970;2024-01-11T10:32:34;102911.13;;;0.26;100.00
39823;BME280;25499;53.958;10.970;2024-01-11T10:35:01;102906.66;;;0.35;100.00
39823;BME280;25499;53.958;10.970;2024-01-11T10:37:30;102894.31;;;0.41;100.00
39823;BME280;25499;53.958;10.970;2024-01-11T10:40:02;102897.19;;;0.46;100.00
39823;BME280;25499;53.958;10.970;2024-01-11T10:42:31;102886.63;;;0.53;100.00
39823;BME280;25499;53.958;10.970;2024-01-11T10:44:59;102892.88;;;0.57;100.00
39823;BME280;25499;53.958;10.970;2024-01-11T10:47:30;102893.97;;;0.60;100.00
39823;BME280;25499;53.958;10.970;2024-01-11T10:49:59;102880.81;;;0.67;100.00
39823;BME280;25499;53.958;10.970;2024-01-11T10:52:28;102883.50;;;0.69;100.00
39823;BME280;25499;53.958;10.970;2024-01-11T10:55:03;102880.69;;;0.78;100.00
39823;BME280;25499;53.958;10.970;2024-01-11T10:57:32;102885.16;;;0.80;100.00
39823;BME280;25499;53.958;10.970;2024-01-11T11:00:00;102888.84;;;0.84;100.00
39823;BME280;25499;53.958;10.970;2024-01-11T11:02:29;102889.16;;;0.88;100.00
39823;BME280;25499;53.958;10.970;2024-01-11T11:04:56;102895.63;;;0.95;100.00
39823;BME280;25499;53.958;10.970;2024-01-11T11:07:24;102896.84;;;0.88;100.00
39823;BME280;25499;53.958;10.970;2024-01-11T11:09:52;102893.06;;;0.83;100.00
39823;BME280;25499;53.958;10.970;2024-01-11T11:12:23;102902.97;;;0.90;100.00
39823;BME280;25499;53.958;10.970;2024-01-11T11:14:51;102893.59;;;0.91;100.00
39823;BME280;25499;53.958;10.970;2024-01-11T11:17:19;102884.56;;;0.96;100.00
39823;BME280;25499;53.958;10.970;2024-01-11T11:19:46;102883.00;;;0.98;100.00
39823;BME280;25499;53.958;10.970;2024-01-11T11:22:13;102870.97;;;0.97;100.00
39823;BME280;25499;53.958;10.970;2024-01-11T11:24:41;102869.41;;;0.99;100.00
39823;BME280;25499;53.958;10.970;2024-01-11T11:27:07;102862.19;;;0.93;100.00
39823;BME280;25499;53.958;10.970;2024-01-11T11:29:36;102857.56;;;1.01;100.00
39823;BME280;25499;53.958;10.970;2024-01-11T11:32:03;102857.78;;;1.04;100.00
39823;BME280;25499;53.958;10.970;2024-01-11T11:34:43;102861.13;;;1.03;100.00
39823;BME280;25499;53.958;10.970;2024-01-11T11:37:10;102861.59;;;0.98;100.00
39823;BME280;25499;53.958;10.970;2024-01-11T11:39:37;102855.22;;;1.04;100.00
39823;BME280;25499;53.958;10.970;2024-01-11T11:42:04;102849.22;;;1.04;100.00
39823;BME280;25499;53.958;10.970;2024-01-11T11:44:32;102849.31;;;1.05;100.00
39823;BME280;25499;53.958;10.970;2024-01-11T11:47:22;102835.47;;;1.03;100.00
39823;BME280;25499;53.958;10.970;2024-01-11T11:50:06;102844.09;;;1.04;100.00
39823;BME280;25499;53.958;10.970;2024-01-11T11:52:33;102833.72;;;1.02;100.00
39823;BME280;25499;53.958;10.970;2024-01-11T11:55:01;102828.38;;;0.99;100.00
39823;BME280;25499;53.958;10.970;2024-01-11T11:57:29;102823.25;;;0.99;100.00
39823;BME280;25499;53.958;10.970;2024-01-11T11:59:57;102836.28;;;1.02;100.00
39823;BME280;25499;53.958;10.970;2024-01-11T12:02:27;102828.81;;;1.05;100.00
39823;BME280;25499;53.958;10.970;2024-01-11T12:04:53;102834.94;;;1.07;100.00
39823;BME280;25499;53.958;10.970;2024-01-11T12:07:21;102829.25;;;1.00;100.00
39823;BME280;25499;53.958;10.970;2024-01-11T12:09:49;102825.91;;;1.01;100.00
39823;BME280;25499;53.958;10.970;2024-01-11T12:12:16;102828.38;;;0.99;100.00
39823;BME280;25499;53.958;10.970;2024-01-11T12:14:46;102832.34;;;1.07;100.00
39823;BME280;25499;53.958;10.970;2024-01-11T12:17:12;102824.97;;;1.12;100.00
39823;BME280;25499;53.958;10.970;2024-01-11T12:19:41;102816.81;;;1.18;100.00
39823;BME280;25499;53.958;10.970;2024-01-11T12:22:08;102825.59;;;1.21;100.00
39823;BME280;25499;53.958;10.970;2024-01-11T12:24:35;102823.03;;;1.21;100.00
39823;BME280;25499;53.958;10.970;2024-01-11T12:27:02;102819.00;;;1.25;100.00
39823;BME280;25499;53.958;10.970;2024-01-11T12:29:29;102830.31;;;1.15;100.00
39823;BME280;25499;53.958;10.970;2024-01-11T12:31:57;102811.69;;;1.18;100.00
39823;BME280;25499;53.958;10.970;2024-01-11T12:34:25;102816.50;;;1.13;100.00
39823;BME280;25499;53.958;10.970;2024-01-11T12:36:54;102812.13;;;1.12;100.00
39823;BME280;25499;53.958;10.970;2024-01-11T12:39:26;102822.06;;;1.19;100.00
39823;BME280;25499;53.958;10.970;2024-01-11T12:41:54;102808.91;;;1.15;100.00
39823;BME280;25499;53.958;10.970;2024-01-11T12:44:23;102809.22;;;1.19;100.00
39823;BME280;25499;53.958;10.970;2024-01-11T12:46:50;102818.03;;;1.23;100.00
39823;BME280;25499;53.958;10.970;2024-01-11T12:49:17;102805.69;;;1.30;100.00
39823;BME280;25499;53.958;10.970;2024-01-11T12:51:45;102801.00;;;1.37;100.00
39823;BME280;25499;53.958;10.970;2024-01-11T12:54:13;102800.31;;;1.39;100.00
39823;BME280;25499;53.958;10.970;2024-01-11T12:56:41;102811.38;;;1.38;100.00
39823;BME280;25499;53.958;10.970;2024-01-11T12:59:09;102795.97;;;1.38;100.00
39823;BME280;25499;53.958;10.970;2024-01-11T13:01:36;102787.56;;;1.41;100.00
39823;BME280;25499;53.958;10.970;2024-01-11T13:04:04;102786.47;;;1.37;100.00
39823;BME280;25499;53.958;10.970;2024-01-11T13:06:32;102793.84;;;1.44;100.00
39823;BME280;25499;53.958;10.970;2024-01-11T13:09:00;102804.16;;;1.46;100.00
39823;BME280;25499;53.958;10.970;2024-01-11T13:11:28;102808.03;;;1.53;100.00
39823;BME280;25499;53.958;10.970;2024-01-11T13:13:55;102802.91;;;1.53;100.00
39823;BME280;25499;53.958;10.970;2024-01-11T13:16:24;102794.84;;;1.60;100.00
39823;BME280;25499;53.958;10.970;2024-01-11T13:18:51;102804.31;;;1.61;100.00
39823;BME280;25499;53.958;10.970;2024-01-11T13:21:18;102801.19;;;1.65;100.00
39823;BME280;25499;53.958;10.970;2024-01-11T13:23:45;102788.13;;;1.62;100.00
39823;BME280;25499;53.958;10.970;2024-01-11T13:26:12;102782.78;;;1.59;100.00
39823;BME280;25499;53.958;10.970;2024-01-11T13:28:40;102784.94;;;1.53;100.00
39823;BME280;25499;53.958;10.970;2024-01-11T13:31:07;102788.88;;;1.47;100.00
39823;BME280;25499;53.958;10.970;2024-01-11T13:33:36;102794.91;;;1.48;100.00
39823;BME280;25499;53.958;10.970;2024-01-11T13:36:03;102800.34;;;1.53;100.00
39823;BME280;25499;53.958;10.970;2024-01-11T13:38:31;102802.72;;;1.49;100.00
39823;BME280;25499;53.958;10.970;2024-01-11T13:40:58;102802.50;;;1.46;100.00
39823;BME280;25499;53.958;10.970;2024-01-11T13:43:25;102797.59;;;1.49;100.00
39823;BME280;25499;53.958;10.970;2024-01-11T13:45:53;102813.00;;;1.49;100.00
39823;BME280;25499;53.958;10.970;2024-01-11T13:48:21;102802.50;;;1.46;100.00
39823;BME280;25499;53.958;10.970;2024-01-11T13:50:47;102801.88;;;1.37;100.00
39823;BME280;25499;53.958;10.970;2024-01-11T13:53:14;102809.94;;;1.30;100.00
39823;BME280;25499;53.958;10.970;2024-01-11T13:55:41;102808.38;;;1.32;100.00
39823;BME280;25499;53.958;10.970;2024-01-11T13:58:09;102812.31;;;1.27;100.00
39823;BME280;25499;53.958;10.970;2024-01-11T14:00:38;102807.75;;;1.23;100.00
39823;BME280;25499;53.958;10.970;2024-01-11T14:03:06;102815.63;;;1.13;100.00
39823;BME280;25499;53.958;10.970;2024-01-11T14:05:34;102799.41;;;1.14;100.00
39823;BME280;25499;53.958;10.970;2024-01-11T14:08:01;102798.22;;;1.08;100.00
39823;BME280;25499;53.958;10.970;2024-01-11T14:10:31;102799.56;;;1.03;100.00
39823;BME280;25499;53.958;10.970;2024-01-11T14:12:57;102789.78;;;0.98;100.00
39823;BME280;25499;53.958;10.970;2024-01-11T14:15:24;102791.78;;;1.02;100.00
39823;BME280;25499;53.958;10.970;2024-01-11T14:17:51;102792.97;;;1.07;100.00
39823;BME280;25499;53.958;10.970;2024-01-11T14:20:20;102794.88;;;1.09;100.00
39823;BME280;25499;53.958;10.970;2024-01-11T14:22:47;102798.31;;;1.10;100.00
39823;BME280;25499;53.958;10.970;2024-01-11T14:25:15;102785.09;;;1.04;100.00
39823;BME280;25499;53.958;10.970;2024-01-11T14:27:42;102789.63;;;1.08;100.00
39823;BME280;25499;53.958;10.970;2024-01-11T14:30:10;102790.50;;;1.08;100.00
39823;BME280;25499;53.958;10.970;2024-01-11T14:32:37;102794.78;;;1.08;100.00
39823;BME280;25499;53.958;10.970;2024-01-11T14:35:05;102794.34;;;1.02;100.00
39823;BME280;25499;53.958;10.970;2024-01-11T14:37:35;102803.72;;;1.01;100.00
39823;BME280;25499;53.958;10.970;2024-01-11T14:40:03;102797.59;;;0.99;100.00
39823;BME280;25499;53.958;10.970;2024-01-11T14:42:30;102805.28;;;0.99;100.00
39823;BME280;25499;53.958;10.970;2024-01-11T14:44:57;102804.28;;;0.97;100.00
39823;BME280;25499;53.958;10.970;2024-01-11T14:47:23;102804.28;;;0.97;100.00
39823;BME280;25499;53.958;10.970;2024-01-11T14:49:51;102804.75;;;0.91;100.00
39823;BME280;25499;53.958;10.970;2024-01-11T14:52:17;102799.97;;;0.84;100.00
39823;BME280;25499;53.958;10.970;2024-01-11T14:54:46;102811.03;;;0.83;100.00
39823;BME280;25499;53.958;10.970;2024-01-11T14:57:14;102820.16;;;0.80;100.00
39823;BME280;25499;53.958;10.970;2024-01-11T14:59:41;102827.97;;;0.81;100.00
39823;BME280;25499;53.958;10.970;2024-01-11T15:02:08;102827.22;;;0.70;100.00
39823;BME280;25499;53.958;10.970;2024-01-11T15:04:34;102820.88;;;0.65;100.00
39823;BME280;25499;53.958;10.970;2024-01-11T15:07:01;102822.22;;;0.60;100.00
39823;BME280;25499;53.958;10.970;2024-01-11T15:09:28;102824.44;;;0.55;100.00
39823;BME280;25499;53.958;10.970;2024-01-11T15:11:58;102835.16;;;0.50;100.00
39823;BME280;25499;53.958;10.970;2024-01-11T15:14:25;102834.81;;;0.45;100.00
39823;BME280;25499;53.958;10.970;2024-01-11T15:16:52;102835.50;;;0.43;100.00
39823;BME280;25499;53.958;10.970;2024-01-11T15:19:19;102830.03;;;0.38;100.00
39823;BME280;25499;53.958;10.970;2024-01-11T15:21:46;102826.47;;;0.36;100.00
39823;BME280;25499;53.958;10.970;2024-01-11T15:24:12;102828.94;;;0.34;100.00
39823;BME280;25499;53.958;10.970;2024-01-11T15:26:39;102826.16;;;0.31;100.00
39823;BME280;25499;53.958;10.970;2024-01-11T15:29:08;102814.78;;;0.28;100.00
39823;BME280;25499;53.958;10.970;2024-01-11T15:31:35;102821.59;;;0.27;100.00
39823;BME280;25499;53.958;10.970;2024-01-11T15:34:04;102820.44;;;0.24;100.00
39823;BME280;25499;53.958;10.970;2024-01-11T15:36:31;102826.03;;;0.18;100.00
39823;BME280;25499;53.958;10.970;2024-01-11T15:38:58;102831.72;;;0.14;100.00
39823;BME280;25499;53.958;10.970;2024-01-11T15:41:24;102832.03;;;0.07;100.00
39823;BME280;25499;53.958;10.970;2024-01-11T15:43:51;102841.28;;;0.05;100.00
39823;BME280;25499;53.958;10.970;2024-01-11T15:46:19;102838.72;;;0.05;100.00
39823;BME280;25499;53.958;10.970;2024-01-11T15:48:47;102844.50;;;0.02;100.00
39823;BME280;25499;53.958;10.970;2024-01-11T15:51:14;102848.19;;;0.06;100.00
39823;BME280;25499;53.958;10.970;2024-01-11T15:53:40;102850.75;;;0.06;100.00
39823;BME280;25499;53.958;10.970;2024-01-11T15:56:09;102847.97;;;0.03;100.00
39823;BME280;25499;53.958;10.970;2024-01-11T15:58:37;102852.31;;;0.04;100.00
39823;BME280;25499;53.958;10.970;2024-01-11T16:01:04;102853.19;;;0.04;100.00
39823;BME280;25499;53.958;10.970;2024-01-11T16:03:33;102851.19;;;0.00;100.00
39823;BME280;25499;53.958;10.970;2024-01-11T16:06:00;102856.19;;;-0.02;100.00
39823;BME280;25499;53.958;10.970;2024-01-11T16:08:26;102856.72;;;-0.06;100.00
39823;BME280;25499;53.958;10.970;2024-01-11T16:10:53;102858.28;;;-0.08;100.00
39823;BME280;25499;53.958;10.970;2024-01-11T16:13:20;102851.19;;;-0.12;100.00
39823;BME280;25499;53.958;10.970;2024-01-11T16:15:47;102852.94;;;-0.11;100.00
39823;BME280;25499;53.958;10.970;2024-01-11T16:18:14;102859.19;;;-0.07;100.00
39823;BME280;25499;53.958;10.970;2024-01-11T16:20:44;102864.28;;;-0.07;100.00
39823;BME280;25499;53.958;10.970;2024-01-11T16:23:10;102866.97;;;-0.06;100.00
39823;BME280;25499;53.958;10.970;2024-01-11T16:25:37;102856.19;;;-0.02;100.00
39823;BME280;25499;53.958;10.970;2024-01-11T16:28:04;102859.88;;;0.02;100.00
39823;BME280;25499;53.958;10.970;2024-01-11T16:30:31;102855.88;;;0.06;100.00
39823;BME280;25499;53.958;10.970;2024-01-11T16:32:57;102852.50;;;0.07;100.00
39823;BME280;25499;53.958;10.970;2024-01-11T16:35:25;102850.75;;;0.06;100.00
39823;BME280;25499;53.958;10.970;2024-01-11T16:37:53;102842.84;;;0.03;100.00
39823;BME280;25499;53.958;10.970;2024-01-11T16:40:20;102835.72;;;-0.02;100.00
39823;BME280;25499;53.958;10.970;2024-01-11T16:42:47;102839.50;;;-0.08;100.00
39823;BME280;25499;53.958;10.970;2024-01-11T16:45:14;102840.69;;;-0.15;100.00
39823;BME280;25499;53.958;10.970;2024-01-11T16:47:41;102832.78;;;-0.18;100.00
39823;BME280;25499;53.958;10.970;2024-01-11T16:50:09;102823.75;;;-0.25;100.00
39823;BME280;25499;53.958;10.970;2024-01-11T16:52:35;102839.34;;;-0.22;100.00
39823;BME280;25499;53.958;10.970;2024-01-11T16:55:04;102848.16;;;-0.18;100.00
39823;BME280;25499;53.958;10.970;2024-01-11T16:57:31;102834.88;;;-0.24;100.00
39823;BME280;25499;53.958;10.970;2024-01-11T16:59:57;102850.25;;;-0.24;100.00
39823;BME280;25499;53.958;10.970;2024-01-11T17:02:24;102845.91;;;-0.25;100.00
39823;BME280;25499;53.958;10.970;2024-01-11T17:04:53;102840.69;;;-0.27;100.00
39823;BME280;25499;53.958;10.970;2024-01-11T17:07:20;102838.66;;;-0.31;100.00
39823;BME280;25499;53.958;10.970;2024-01-11T17:09:48;102834.63;;;-0.39;100.00
39823;BME280;25499;53.958;10.970;2024-01-11T17:12:16;102839.72;;;-0.39;100.00
39823;BME280;25499;53.958;10.970;2024-01-11T17:14:42;102837.28;;;-0.38;100.00
39823;BME280;25499;53.958;10.970;2024-01-11T17:17:09;102831.25;;;-0.50;100.00
39823;BME280;25499;53.958;10.970;2024-01-11T17:19:36;102844.59;;;-0.54;100.00
39823;BME280;25499;53.958;10.970;2024-01-11T17:22:03;102848.94;;;-0.53;100.00
39823;BME280;25499;53.958;10.970;2024-01-11T17:24:30;102847.56;;;-0.60;100.00
39823;BME280;25499;53.958;10.970;2024-01-11T17:26:57;102848.75;;;-0.66;100.00
39823;BME280;25499;53.958;10.970;2024-01-11T17:29:30;102856.34;;;-0.68;100.00
39823;BME280;25499;53.958;10.970;2024-01-11T17:31:57;102849.88;;;-0.74;100.00
39823;BME280;25499;53.958;10.970;2024-01-11T17:34:24;102846.16;;;-0.78;100.00
39823;BME280;25499;53.958;10.970;2024-01-11T17:36:51;102855.38;;;-0.80;100.00
39823;BME280;25499;53.958;10.970;2024-01-11T17:39:17;102858.50;;;-0.84;100.00
39823;BME280;25499;53.958;10.970;2024-01-11T17:41:45;102852.25;;;-0.88;100.00
39823;BME280;25499;53.958;10.970;2024-01-11T17:44:12;102854.25;;;-0.84;100.00
39823;BME280;25499;53.958;10.970;2024-01-11T17:46:40;102859.97;;;-0.76;100.00
39823;BME280;25499;53.958;10.970;2024-01-11T17:49:08;102870.38;;;-0.63;100.00
39823;BME280;25499;53.958;10.970;2024-01-11T17:51:35;102874.06;;;-0.59;100.00
39823;BME280;25499;53.958;10.970;2024-01-11T17:54:02;102874.81;;;-0.60;100.00
39823;BME280;25499;53.958;10.970;2024-01-11T17:56:29;102884.81;;;-0.63;100.00
39823;BME280;25499;53.958;10.970;2024-01-11T17:59:02;102884.75;;;-0.53;100.00
39823;BME280;25499;53.958;10.970;2024-01-11T18:01:30;102884.34;;;-0.47;100.00
39823;BME280;25499;53.958;10.970;2024-01-11T18:04:06;102888.25;;;-0.41;100.00
39823;BME280;25499;53.958;10.970;2024-01-11T18:06:33;102888.25;;;-0.41;100.00
39823;BME280;25499;53.958;10.970;2024-01-11T18:09:01;102889.03;;;-0.42;100.00
39823;BME280;25499;53.958;10.970;2024-01-11T18:11:29;102895.94;;;-0.41;100.00
39823;BME280;25499;53.958;10.970;2024-01-11T18:13:57;102889.03;;;-0.42;100.00
39823;BME280;25499;53.958;10.970;2024-01-11T18:16:24;102887.09;;;-0.44;100.00
39823;BME280;25499;53.958;10.970;2024-01-11T18:18:51;102888.03;;;-0.44;100.00
39823;BME280;25499;53.958;10.970;2024-01-11T18:21:19;102890.03;;;-0.40;100.00
39823;BME280;25499;53.958;10.970;2024-01-11T18:23:46;102895.38;;;-0.36;100.00
39823;BME280;25499;53.958;10.970;2024-01-11T18:26:13;102903.94;;;-0.36;100.00
39823;BME280;25499;53.958;10.970;2024-01-11T18:28:42;102904.06;;;-0.34;100.00
39823;BME280;25499;53.958;10.970;2024-01-11T18:31:13;102897.19;;;-0.35;100.00
39823;BME280;25499;53.958;10.970;2024-01-11T18:33:39;102900.38;;;-0.38;100.00
39823;BME280;25499;53.958;10.970;2024-01-11T18:36:07;102905.38;;;-0.40;100.00
39823;BME280;25499;53.958;10.970;2024-01-11T18:38:35;102910.50;;;-0.40;100.00
39823;BME280;25499;53.958;10.970;2024-01-11T18:41:03;102915.63;;;-0.40;100.00
39823;BME280;25499;53.958;10.970;2024-01-11T18:43:30;102916.50;;;-0.39;100.00
39823;BME280;25499;53.958;10.970;2024-01-11T18:45:57;102916.63;;;-0.38;100.00
39823;BME280;25499;53.958;10.970;2024-01-11T18:48:25;102920.97;;;-0.36;100.00
39823;BME280;25499;53.958;10.970;2024-01-11T18:50:52;102912.28;;;-0.39;100.00
39823;BME280;25499;53.958;10.970;2024-01-11T18:53:19;102915.63;;;-0.40;100.00
39823;BME280;25499;53.958;10.970;2024-01-11T18:55:47;102906.94;;;-0.42;100.00
39823;BME280;25499;53.958;10.970;2024-01-11T18:58:15;102911.81;;;-0.45;100.00
39823;BME280;25499;53.958;10.970;2024-01-11T19:00:43;102914.81;;;-0.50;100.00
39823;BME280;25499;53.958;10.970;2024-01-11T19:03:10;102910.31;;;-0.53;100.00
39823;BME280;25499;53.958;10.970;2024-01-11T19:05:38;102912.00;;;-0.53;100.00
39823;BME280;25499;53.958;10.970;2024-01-11T19:08:05;102911.13;;;-0.54;100.00
39823;BME280;25499;53.958;10.970;2024-01-11T19:10:32;102911.63;;;-0.58;100.00
39823;BME280;25499;53.958;10.970;2024-01-11T19:13:00;102912.19;;;-0.62;100.00
39823;BME280;25499;53.958;10.970;2024-01-11T19:15:27;102920.75;;;-0.62;100.00
39823;BME280;25499;53.958;10.970;2024-01-11T19:17:54;102911.81;;;-0.67;100.00
39823;BME280;25499;53.958;10.970;2024-01-11T19:20:21;102914.81;;;-0.72;100.00
39823;BME280;25499;53.958;10.970;2024-01-11T19:22:47;102918.00;;;-0.75;100.00
39823;BME280;25499;53.958;10.970;2024-01-11T19:25:14;102911.75;;;-0.79;100.00
39823;BME280;25499;53.958;10.970;2024-01-11T19:27:42;102911.63;;;-0.80;100.00
39823;BME280;25499;53.958;10.970;2024-01-11T19:30:13;102903.09;;;-0.81;100.00
39823;BME280;25499;53.958;10.970;2024-01-11T19:32:39;102913.31;;;-0.81;100.00
39823;BME280;25499;53.958;10.970;2024-01-11T19:35:06;102903.09;;;-0.81;100.00
39823;BME280;25499;53.958;10.970;2024-01-11T19:37:33;102908.19;;;-0.81;100.00
39823;BME280;25499;53.958;10.970;2024-01-11T19:40:00;102919.19;;;-0.82;100.00
39823;BME280;25499;53.958;10.970;2024-01-11T19:42:28;102920.50;;;-0.87;100.00
39823;BME280;25499;53.958;10.970;2024-01-11T19:44:54;102917.97;;;-0.97;100.00
39823;BME280;25499;53.958;10.970;2024-01-11T19:47:22;102914.25;;;-0.90;100.00
39823;BME280;25499;53.958;10.970;2024-01-11T19:49:49;102927.97;;;-1.00;100.00